Time;durP1;ratioP1;P1;durP2;ratioP2;P2;SDS_P1;SDS_P2;PMS_P1;PMS_P2;Temp;Humidity;BMP_temperature;BMP_pressure;BME280_temperature;BME280_humidity;BME280_pressure;Samples;Min_cycle;Max_cycle;Signal;HPM_P1;HPM_P2
2023/05/30 00:00:43;;;;;;;8.87;2.57;;;;;;;12.09;61.92;101702.72;5025669;28;20225;-82
2023/05/30 00:03:10;;;;;;;13.17;2.47;;;;;;;12.06;62.30;101705.56;5023207;28;20204;-82
2023/05/30 00:05:37;;;;;;;11.83;3.00;;;;;;;12.03;62.53;101703.03;5021598;28;20203;-82
2023/05/30 00:08:03;;;;;;;12.20;2.60;;;;;;;11.99;62.99;101704.19;5030628;28;20229;-81
2023/05/30 00:10:30;;;;;;;16.43;3.83;;;;;;;11.94;63.45;101711.56;5028308;28;20234;-81
2023/05/30 00:12:57;;;;;;;11.40;2.97;;;;;;;11.91;63.76;101709.91;5030492;28;20208;-82
2023/05/30 00:15:25;;;;;;;13.13;2.97;;;;;;;11.86;64.13;101709.25;5030671;28;20213;-82
2023/05/30 00:17:52;;;;;;;10.87;2.87;;;;;;;11.81;64.56;101714.88;5027690;28;20228;-82
2023/05/30 00:20:22;;;;;;;16.40;2.80;;;;;;;11.78;64.80;101708.81;5030182;28;20252;-82
2023/05/30 00:22:48;;;;;;;10.90;3.03;;;;;;;11.74;65.15;101707.22;5019789;28;20199;-82
2023/05/30 00:25:16;;;;;;;7.40;2.93;;;;;;;11.70;65.46;101708.31;5027135;28;20541;-82
2023/05/30 00:27:42;;;;;;;6.23;2.53;;;;;;;11.66;65.95;101707.59;5028346;28;20206;-82
2023/05/30 00:30:11;;;;;;;14.13;2.87;;;;;;;11.62;66.08;101702.50;5027221;28;20226;-82
2023/05/30 00:32:37;;;;;;;10.23;2.60;;;;;;;11.58;66.45;101709.78;5023856;28;20199;-82
2023/05/30 00:35:06;;;;;;;14.13;3.63;;;;;;;11.54;66.75;101712.69;5030092;28;20218;-83
2023/05/30 00:37:33;;;;;;;10.63;3.00;;;;;;;11.49;67.15;101711.13;5025279;28;20817;-82
2023/05/30 00:39:59;;;;;;;10.80;2.93;;;;;;;11.47;67.41;101712.13;5024217;28;20226;-82
2023/05/30 00:42:27;;;;;;;12.33;2.87;;;;;;;11.43;67.68;101706.09;5026728;28;20207;-83
2023/05/30 00:44:53;;;;;;;12.83;2.77;;;;;;;11.40;67.97;101708.06;5030688;28;20207;-83
2023/05/30 00:47:20;;;;;;;9.53;2.97;;;;;;;11.37;68.35;101710.88;5029925;28;20217;-82
2023/05/30 00:49:48;;;;;;;13.00;4.27;;;;;;;11.31;68.82;101711.16;5018494;28;20226;-82
2023/05/30 00:52:16;;;;;;;10.77;3.50;;;;;;;11.28;69.10;101708.69;5018712;28;20607;-83
2023/05/30 00:54:47;;;;;;;10.77;2.77;;;;;;;11.22;69.45;101706.31;5024390;28;20264;-82
2023/05/30 00:57:15;;;;;;;10.87;2.93;;;;;;;11.18;69.95;101710.91;5027215;28;20658;-82
2023/05/30 00:59:42;;;;;;;12.93;2.83;;;;;;;11.13;70.55;101713.78;5020118;28;20821;-82
2023/05/30 01:02:09;;;;;;;11.30;3.20;;;;;;;11.11;70.81;101715.66;5035936;28;20198;-83
2023/05/30 01:04:35;;;;;;;9.43;3.70;;;;;;;11.11;70.73;101717.47;5028577;28;20206;-82
2023/05/30 01:07:02;;;;;;;13.60;3.00;;;;;;;11.05;70.88;101716.00;5027819;28;20619;-82
2023/05/30 01:09:30;;;;;;;11.47;2.97;;;;;;;11.04;71.76;101732.91;5019066;28;20230;-83
2023/05/30 01:12:06;;;;;;;19.57;3.80;;;;;;;11.01;71.77;101725.06;5030169;28;20222;-82
2023/05/30 01:14:40;;;;;;;11.20;3.30;;;;;;;10.97;71.72;101723.47;5020791;28;20941;-82
2023/05/30 01:17:19;;;;;;;8.87;2.97;;;;;;;10.92;71.86;101730.84;5021559;28;20237;-82
2023/05/30 01:20:07;;;;;;;9.90;3.03;;;;;;;10.85;72.82;101726.72;5024509;28;20221;-82
2023/05/30 01:22:49;;;;;;;10.43;3.07;;;;;;;10.81;73.12;101727.81;5027250;28;20207;-82
2023/05/30 01:25:25;;;;;;;7.97;3.27;;;;;;;10.78;73.41;101728.81;5025369;28;20241;-82
2023/05/30 01:28:15;;;;;;;13.10;3.10;;;;;;;10.76;74.04;101735.16;5022094;28;20762;-83
2023/05/30 01:30:45;;;;;;;14.23;3.07;;;;;;;10.74;74.15;101731.72;5021301;28;20258;-82
2023/05/30 01:33:14;;;;;;;12.60;2.73;;;;;;;10.72;74.28;101725.59;5019888;28;20203;-82
2023/05/30 01:35:42;;;;;;;10.10;3.40;;;;;;;10.68;74.27;101726.66;5028517;28;20221;-82
2023/05/30 01:38:08;;;;;;;14.23;4.17;;;;;;;10.65;74.80;101726.81;5031502;28;20198;-82
2023/05/30 01:40:36;;;;;;;13.10;3.57;;;;;;;10.62;75.26;101732.25;5026874;28;20230;-82
2023/05/30 01:43:12;;;;;;;16.80;3.70;;;;;;;10.57;75.47;101727.13;5017260;28;20207;-83
2023/05/30 01:45:47;;;;;;;13.07;3.60;;;;;;;10.56;75.76;101729.91;5020668;28;20701;-84
2023/05/30 01:48:18;;;;;;;9.80;3.23;;;;;;;10.53;76.09;101728.25;5022351;28;20241;-83
2023/05/30 01:50:48;;;;;;;13.77;4.13;;;;;;;10.50;76.20;101722.19;5018015;28;20285;-82
2023/05/30 01:53:22;;;;;;;10.07;3.57;;;;;;;10.46;76.92;101729.44;5023509;28;20203;-82
2023/05/30 01:55:51;;;;;;;11.60;3.80;;;;;;;10.43;77.28;101727.78;5030018;28;20292;-83
2023/05/30 01:58:21;;;;;;;15.57;3.53;;;;;;;10.39;77.14;101726.19;5030570;28;20229;-82
2023/05/30 02:00:50;;;;;;;14.67;3.47;;;;;;;10.37;77.44;101728.09;5024367;28;20245;-83
2023/05/30 02:03:17;;;;;;;13.27;3.60;;;;;;;10.35;78.14;101727.28;5033682;28;20214;-83
2023/05/30 02:05:43;;;;;;;14.27;3.57;;;;;;;10.31;78.08;101728.34;5033042;28;20888;-83
2023/05/30 02:08:10;;;;;;;14.13;3.50;;;;;;;10.28;78.21;101730.28;5032488;28;20622;-82
2023/05/30 02:10:37;;;;;;;10.27;3.50;;;;;;;10.24;78.44;101726.88;5033984;28;20276;-82
2023/05/30 02:13:03;;;;;;;12.00;3.37;;;;;;;10.21;78.92;101724.34;5034532;28;20577;-84
2023/05/30 02:15:30;;;;;;;14.17;4.70;;;;;;;10.18;79.34;101735.13;5031850;28;20211;-83
2023/05/30 02:17:59;;;;;;;16.10;3.60;;;;;;;10.16;79.58;101739.66;5031022;28;20611;-82
2023/05/30 02:20:25;;;;;;;16.57;4.30;;;;;;;10.15;79.58;101737.06;5029481;28;20238;-82
2023/05/30 02:22:52;;;;;;;13.70;3.77;;;;;;;10.09;80.29;101733.72;5023883;28;20199;-82
2023/05/30 02:25:19;;;;;;;18.53;3.67;;;;;;;10.06;79.86;101744.50;5037080;28;20294;-82
2023/05/30 02:27:47;;;;;;;16.50;3.97;;;;;;;10.03;80.68;101743.81;5032384;28;20202;-83
2023/05/30 02:30:14;;;;;;;13.83;3.87;;;;;;;9.99;81.08;101753.69;5033498;28;20230;-82
2023/05/30 02:32:41;;;;;;;17.10;4.47;;;;;;;9.97;81.20;101757.38;5031448;28;20241;-83
2023/05/30 02:35:09;;;;;;;17.23;3.90;;;;;;;9.92;81.85;101754.88;5028973;28;20206;-83
2023/05/30 02:37:36;;;;;;;14.77;3.87;;;;;;;9.89;82.10;101759.47;5039699;28;20221;-82
2023/05/30 02:40:03;;;;;;;10.70;3.70;;;;;;;9.85;82.63;101766.75;5030026;28;20229;-83
2023/05/30 02:42:30;;;;;;;16.03;3.90;;;;;;;9.82;82.63;101750.03;5031740;28;20647;-82
2023/05/30 02:44:56;;;;;;;19.30;4.47;;;;;;;9.81;82.34;101753.63;5035824;28;20216;-82
2023/05/30 02:47:23;;;;;;;16.00;4.30;;;;;;;9.79;82.89;101759.00;5026552;28;20206;-83
2023/05/30 02:49:50;;;;;;;14.13;3.87;;;;;;;9.78;83.38;101764.41;5028619;28;20223;-86
2023/05/30 02:52:19;;;;;;;13.30;3.93;;;;;;;9.76;83.71;101756.47;5027735;28;20245;-86
2023/05/30 02:54:46;;;;;;;15.43;4.30;;;;;;;9.74;84.13;101763.66;5022075;28;20203;-85
2023/05/30 02:57:12;;;;;;;21.17;4.87;;;;;;;9.72;84.56;101761.06;5032078;28;20213;-86
2023/05/30 02:59:39;;;;;;;16.50;4.80;;;;;;;9.72;84.35;101766.38;5027210;28;20243;-87
2023/05/30 03:02:06;;;;;;;14.43;4.67;;;;;;;9.74;84.93;101768.97;5025021;28;20210;-85
2023/05/30 03:04:32;;;;;;;16.57;4.40;;;;;;;9.75;84.78;101773.38;5026494;28;20217;-87
2023/05/30 03:06:59;;;;;;;19.60;3.73;;;;;;;9.73;85.09;101773.44;5023703;28;20206;-86
2023/05/30 03:09:27;;;;;;;13.00;4.40;;;;;;;9.73;85.25;101773.44;5017281;28;20230;-86
2023/05/30 03:11:53;;;;;;;16.50;4.27;;;;;;;9.72;84.90;101771.69;5027497;28;20484;-86
2023/05/30 03:14:20;;;;;;;17.03;3.97;;;;;;;9.72;85.14;101770.84;5019812;28;20686;-82
2023/05/30 03:16:48;;;;;;;14.30;4.27;;;;;;;9.70;85.78;101768.22;5021520;28;20565;-82
2023/05/30 03:19:14;;;;;;;14.87;4.00;;;;;;;9.71;86.10;101767.31;5029444;28;20210;-82
2023/05/30 03:21:42;;;;;;;19.00;4.47;;;;;;;9.71;85.99;101775.28;5033585;28;20229;-82
2023/05/30 03:24:09;;;;;;;21.43;4.70;;;;;;;9.72;86.09;101769.03;5024907;28;20206;-83
2023/05/30 03:26:37;;;;;;;11.90;3.73;;;;;;;9.71;86.85;101780.59;5021275;28;20244;-82
2023/05/30 03:29:03;;;;;;;15.40;4.20;;;;;;;9.72;87.15;101782.34;5040075;28;20206;-83
2023/05/30 03:31:30;;;;;;;17.07;4.70;;;;;;;9.74;87.03;101774.28;5034582;28;20702;-82
2023/05/30 03:33:57;;;;;;;16.27;4.87;;;;;;;9.79;87.45;101790.06;5033522;28;20210;-81
2023/05/30 03:36:24;;;;;;;13.00;4.60;;;;;;;9.79;87.95;101790.94;5032825;28;20218;-82
2023/05/30 03:38:50;;;;;;;13.97;4.20;;;;;;;9.81;88.12;101790.88;5024757;28;20202;-82
2023/05/30 03:41:17;;;;;;;20.87;4.87;;;;;;;9.81;87.78;101785.56;5035809;28;20259;-82
2023/05/30 03:43:45;;;;;;;16.87;4.43;;;;;;;9.81;88.46;101789.09;5032918;28;20938;-82
2023/05/30 03:46:11;;;;;;;13.90;4.37;;;;;;;9.83;88.61;101792.53;5031525;28;20260;-83
2023/05/30 03:48:38;;;;;;;10.30;4.57;;;;;;;9.85;88.35;101792.50;5034104;28;20206;-82
2023/05/30 03:51:05;;;;;;;17.60;4.70;;;;;;;9.88;88.61;101792.34;5036601;28;20215;-83
2023/05/30 03:53:31;;;;;;;16.60;4.97;;;;;;;9.89;88.82;101796.72;5022403;28;20241;-83
2023/05/30 03:55:58;;;;;;;16.93;5.20;;;;;;;9.92;88.95;101793.94;5030836;28;20209;-82
2023/05/30 03:58:24;;;;;;;13.77;4.13;;;;;;;9.94;89.27;101794.75;5034217;28;20206;-81
2023/05/30 04:00:52;;;;;;;13.87;4.57;;;;;;;9.96;89.27;101792.88;5028224;28;20593;-81
2023/05/30 04:03:19;;;;;;;15.27;5.00;;;;;;;9.95;89.33;101801.78;5030662;28;20205;-81
2023/05/30 04:05:47;;;;;;;15.97;4.60;;;;;;;9.97;89.42;101799.94;5027155;28;20198;-81
2023/05/30 04:08:14;;;;;;;14.30;4.57;;;;;;;9.98;89.35;101801.66;5037894;28;21464;-81
2023/05/30 04:10:40;;;;;;;12.77;4.47;;;;;;;9.99;89.71;101806.94;5020636;28;20234;-81
2023/05/30 04:13:07;;;;;;;13.17;4.67;;;;;;;10.00;89.37;101803.34;5027543;28;20226;-81
2023/05/30 04:15:33;;;;;;;15.10;4.50;;;;;;;10.01;89.64;101799.75;5034504;28;20210;-81
2023/05/30 04:18:01;;;;;;;15.53;4.97;;;;;;;10.05;89.45;101811.09;5029536;28;20198;-82
2023/05/30 04:20:28;;;;;;;14.00;5.00;;;;;;;10.07;89.73;101809.25;5033795;28;20226;-82
2023/05/30 04:22:55;;;;;;;13.33;4.50;;;;;;;10.11;90.03;101810.84;5037337;28;20198;-82
2023/05/30 04:25:22;;;;;;;14.90;4.13;;;;;;;10.11;89.87;101808.19;5031254;28;20207;-81
2023/05/30 04:27:48;;;;;;;14.27;4.40;;;;;;;10.12;89.34;101817.03;5020787;28;20226;-82
2023/05/30 04:30:15;;;;;;;12.20;4.73;;;;;;;10.09;89.58;101815.38;5035623;28;20221;-80
2023/05/30 04:32:42;;;;;;;20.07;4.37;;;;;;;10.09;89.50;101815.38;5027722;28;20605;-82
2023/05/30 04:35:13;;;;;;;12.67;4.03;;;;;;;10.09;89.35;101818.03;5028282;28;20203;-81
2023/05/30 04:37:43;;;;;;;13.57;4.70;;;;;;;10.07;89.15;101822.56;5027048;28;20293;-81
2023/05/30 04:40:12;;;;;;;16.10;4.70;;;;;;;10.08;89.29;101817.16;5025933;28;20226;-81
2023/05/30 04:42:39;;;;;;;16.67;4.17;;;;;;;10.09;89.37;101818.91;5021478;28;20198;-81
2023/05/30 04:45:07;;;;;;;15.77;5.27;;;;;;;10.14;89.73;101817.84;5028228;28;20273;-81
2023/05/30 04:47:34;;;;;;;16.00;5.23;;;;;;;10.16;89.78;101824.84;5038225;28;20206;-81
2023/05/30 04:50:01;;;;;;;14.67;4.70;;;;;;;10.18;89.81;101816.78;5041658;28;20711;-81
2023/05/30 04:52:30;;;;;;;14.17;5.17;;;;;;;10.23;89.61;101822.78;5033310;28;20231;-81
2023/05/30 04:54:56;;;;;;;14.83;4.27;;;;;;;10.26;89.47;101826.19;5035180;28;20205;-81
2023/05/30 04:57:23;;;;;;;16.37;5.30;;;;;;;10.32;89.75;101825.06;5028512;28;20210;-81
2023/05/30 04:59:50;;;;;;;20.17;5.30;;;;;;;10.35;89.81;101823.16;5029409;28;20230;-82
2023/05/30 05:02:17;;;;;;;16.47;4.30;;;;;;;10.43;89.68;101831.66;5028622;28;20225;-80
2023/05/30 05:04:44;;;;;;;18.43;4.40;;;;;;;10.48;89.76;101819.94;5026338;28;20206;-80
2023/05/30 05:07:11;;;;;;;10.73;4.20;;;;;;;10.51;89.15;101825.13;5035856;28;20202;-81
2023/05/30 05:09:38;;;;;;;11.97;4.10;;;;;;;10.55;88.91;101819.59;5028910;28;20341;-81
2023/05/30 05:12:06;;;;;;;15.33;5.03;;;;;;;10.62;89.00;101828.16;5027155;28;20700;-81
2023/05/30 05:14:32;;;;;;;14.33;4.30;;;;;;;10.66;88.34;101829.78;5026284;28;20205;-81
2023/05/30 05:16:59;;;;;;;12.70;4.50;;;;;;;10.65;87.96;101818.25;5022428;28;20214;-82
2023/05/30 05:19:25;;;;;;;12.37;5.30;;;;;;;10.68;87.88;101822.56;5025819;28;20701;-81
2023/05/30 05:21:52;;;;;;;10.87;4.83;;;;;;;10.69;87.70;101819.84;5027982;28;20199;-81
2023/05/30 05:24:18;;;;;;;14.60;4.77;;;;;;;10.76;88.09;101823.06;5032589;28;20214;-82
2023/05/30 05:26:46;;;;;;;12.60;5.27;;;;;;;10.76;87.28;101821.28;5031185;28;20199;-82
2023/05/30 05:29:13;;;;;;;12.63;5.03;;;;;;;10.80;86.91;101814.00;5031485;28;20205;-82
2023/05/30 05:31:40;;;;;;;14.83;5.40;;;;;;;10.82;86.61;101824.59;5024699;28;20207;-82
2023/05/30 05:34:06;;;;;;;13.90;4.73;;;;;;;10.81;86.50;101823.75;5018918;28;20206;-83
2023/05/30 05:36:33;;;;;;;11.80;4.53;;;;;;;10.83;86.77;101818.34;5018386;28;20262;-83
2023/05/30 05:38:59;;;;;;;15.20;4.63;;;;;;;10.85;86.40;101814.69;5020762;28;20198;-83
2023/05/30 05:41:26;;;;;;;14.73;5.73;;;;;;;10.91;86.24;101824.19;5024059;28;20226;-83
2023/05/30 05:43:55;;;;;;;12.40;5.80;;;;;;;10.93;86.67;101822.31;5020953;28;20565;-83
2023/05/30 05:46:21;;;;;;;16.70;5.50;;;;;;;10.98;86.21;101831.81;5025888;28;20203;-83
2023/05/30 05:48:48;;;;;;;14.57;4.77;;;;;;;11.01;85.61;101826.34;5026654;28;20570;-83
2023/05/30 05:51:15;;;;;;;11.13;4.90;;;;;;;11.06;85.62;101824.34;5033754;28;20224;-83
2023/05/30 05:53:42;;;;;;;16.40;5.37;;;;;;;11.12;85.31;101823.19;5030113;28;20724;-82
2023/05/30 05:56:08;;;;;;;19.37;5.60;;;;;;;11.19;85.07;101829.97;5026964;28;20294;-83
2023/05/30 05:58:35;;;;;;;15.47;5.10;;;;;;;11.29;85.40;101827.72;5041621;28;20207;-83
2023/05/30 06:01:04;;;;;;;13.67;5.10;;;;;;;11.38;84.92;101822.81;5028974;28;20294;-83
2023/05/30 06:03:30;;;;;;;13.13;4.33;;;;;;;11.48;84.19;101831.22;5031447;28;20259;-83
2023/05/30 06:06:00;;;;;;;13.90;4.67;;;;;;;11.59;83.36;101825.41;5018667;28;20284;-83
2023/05/30 06:08:27;;;;;;;8.93;4.37;;;;;;;11.73;83.01;101821.09;5024435;28;20258;-82
2023/05/30 06:10:54;;;;;;;12.17;4.93;;;;;;;11.84;82.45;101828.59;5025821;28;20257;-83
2023/05/30 06:13:20;;;;;;;12.47;4.73;;;;;;;11.90;81.55;101825.63;5022718;28;20253;-82
2023/05/30 06:15:47;;;;;;;13.47;5.03;;;;;;;11.99;80.94;101825.19;5028847;28;20258;-82
2023/05/30 06:18:15;;;;;;;12.20;5.23;;;;;;;12.08;80.32;101831.84;5026078;28;20213;-83
2023/05/30 06:20:42;;;;;;;11.67;4.60;;;;;;;12.13;79.78;101821.81;5028581;28;20311;-83
2023/05/30 06:23:09;;;;;;;13.70;4.67;;;;;;;12.26;79.83;101817.56;5017394;28;20689;-83
2023/05/30 06:25:35;;;;;;;11.97;4.63;;;;;;;12.43;79.45;101825.56;5015116;28;20688;-83
2023/05/30 06:28:02;;;;;;;10.37;4.20;;;;;;;12.56;78.94;101830.25;5025665;28;20652;-83
2023/05/30 06:30:29;;;;;;;11.03;4.63;;;;;;;12.69;77.97;101824.19;5034153;28;20237;-83
2023/05/30 06:32:55;;;;;;;13.30;4.17;;;;;;;12.90;78.17;101832.84;5030837;28;20611;-83
2023/05/30 06:35:23;;;;;;;17.43;4.50;;;;;;;13.04;76.83;101830.28;5033669;28;20221;-83
2023/05/30 06:37:50;;;;;;;11.07;3.97;;;;;;;13.14;75.12;101825.28;5026520;28;20204;-84
2023/05/30 06:40:17;;;;;;;12.53;5.07;;;;;;;13.27;74.82;101822.81;5034693;28;20360;-84
2023/05/30 06:42:43;;;;;;;12.03;4.00;;;;;;;13.38;74.32;101823.09;5035408;28;20309;-83
2023/05/30 06:45:10;;;;;;;17.03;5.40;;;;;;;13.50;73.23;101831.28;5026685;28;20217;-83
2023/05/30 06:47:37;;;;;;;13.43;4.30;;;;;;;13.58;72.27;101828.19;5027920;28;20239;-84
2023/05/30 06:50:04;;;;;;;10.43;3.97;;;;;;;13.65;71.54;101826.84;5033981;28;20229;-84
2023/05/30 06:52:33;;;;;;;9.87;3.90;;;;;;;13.70;70.86;101827.47;5026670;28;20233;-83
2023/05/30 06:55:00;;;;;;;12.93;4.23;;;;;;;13.78;69.86;101835.06;5039432;28;20303;-81
2023/05/30 06:57:31;;;;;;;14.23;4.20;;;;;;;13.88;70.32;101834.44;5038931;28;20256;-82
2023/05/30 06:59:58;;;;;;;12.20;3.87;;;;;;;14.08;70.25;101837.75;5029802;28;20224;-83
2023/05/30 07:02:24;;;;;;;11.27;4.03;;;;;;;14.26;69.57;101836.66;5037813;28;20289;-83
2023/05/30 07:04:51;;;;;;;10.37;4.20;;;;;;;14.33;67.93;101838.00;5029875;28;20203;-83
2023/05/30 07:07:18;;;;;;;10.53;3.87;;;;;;;14.45;67.90;101844.50;5024026;28;20666;-83
2023/05/30 07:09:46;;;;;;;11.43;4.10;;;;;;;14.56;67.14;101850.91;5067699;22;20213;-83
2023/05/30 07:12:13;;;;;;;11.10;4.40;;;;;;;14.67;66.57;101852.09;5053965;28;20202;-84
2023/05/30 07:14:40;;;;;;;12.47;4.60;;;;;;;14.71;65.81;101845.56;5046456;28;20202;-83
2023/05/30 07:17:07;;;;;;;11.43;3.80;;;;;;;14.79;65.32;101844.16;5037121;28;20214;-82
2023/05/30 07:19:34;;;;;;;9.37;3.77;;;;;;;14.86;64.58;101844.66;5051755;28;20780;-83
2023/05/30 07:22:00;;;;;;;9.70;3.70;;;;;;;14.94;64.15;101842.31;5049214;28;20205;-82
2023/05/30 07:24:27;;;;;;;11.00;3.90;;;;;;;15.04;63.24;101850.69;5055054;28;20202;-82
2023/05/30 07:26:55;;;;;;;13.53;3.63;;;;;;;15.09;62.51;101852.09;5055234;28;20216;-83
2023/05/30 07:29:21;;;;;;;8.57;3.73;;;;;;;15.18;62.66;101840.78;5054847;28;20564;-83
2023/05/30 07:31:48;;;;;;;15.57;3.80;;;;;;;15.30;61.67;101844.50;5055937;28;20208;-82
2023/05/30 07:34:17;;;;;;;9.00;3.10;;;;;;;15.40;60.65;101845.66;5055069;28;20222;-82
2023/05/30 07:36:43;;;;;;;12.03;3.63;;;;;;;15.48;60.44;101850.50;5055656;28;20221;-84
2023/05/30 07:39:10;;;;;;;9.87;4.27;;;;;;;15.54;60.34;101855.50;5054697;28;20275;-83
2023/05/30 07:41:37;;;;;;;11.57;4.37;;;;;;;15.55;59.73;101850.06;5053229;28;20232;-82
2023/05/30 07:44:05;;;;;;;10.83;3.53;;;;;;;15.54;58.72;101850.97;5056589;28;20196;-83
2023/05/30 07:46:31;;;;;;;12.83;4.50;;;;;;;15.58;59.30;101846.31;5057328;28;20385;-83
2023/05/30 07:49:00;;;;;;;10.10;3.60;;;;;;;15.62;59.20;101850.50;5055995;28;20280;-82
2023/05/30 07:51:27;;;;;;;8.97;3.33;;;;;;;15.64;58.38;101856.63;5055212;28;20235;-82
2023/05/30 07:53:56;;;;;;;12.10;3.93;;;;;;;15.61;58.22;101851.47;5054554;28;20221;-82
2023/05/30 07:56:22;;;;;;;12.93;3.77;;;;;;;15.61;58.46;101852.31;5054521;28;20210;-82
2023/05/30 07:58:49;;;;;;;9.97;3.90;;;;;;;15.66;58.61;101843.97;5054393;28;20228;-82
2023/05/30 08:01:18;;;;;;;11.57;3.90;;;;;;;15.75;58.43;101847.88;5054268;28;20215;-82
2023/05/30 08:03:44;;;;;;;13.13;4.10;;;;;;;15.81;58.79;101851.00;5056568;28;20203;-81
2023/05/30 08:06:11;;;;;;;9.97;3.87;;;;;;;15.84;57.39;101845.44;5055698;28;20208;-82
2023/05/30 08:08:38;;;;;;;16.47;4.33;;;;;;;15.93;58.58;101844.84;5054686;28;20208;-82
2023/05/30 08:11:05;;;;;;;8.70;3.63;;;;;;;16.06;58.59;101842.19;5041987;28;20585;-83
2023/05/30 08:13:31;;;;;;;11.30;4.30;;;;;;;16.16;57.90;101837.03;5051980;28;20235;-81
2023/05/30 08:15:58;;;;;;;12.00;3.73;;;;;;;16.26;57.86;101836.31;5053939;28;20196;-81
2023/05/30 08:18:30;;;;;;;9.80;4.20;;;;;;;16.35;57.23;101832.13;5055428;28;20207;-82
2023/05/30 08:20:57;;;;;;;14.90;4.27;;;;;;;16.45;57.30;101835.06;5056377;28;20318;-82
2023/05/30 08:23:24;;;;;;;15.70;4.80;;;;;;;16.47;56.32;101833.13;5064650;28;20206;-82
2023/05/30 08:25:50;;;;;;;9.80;5.23;;;;;;;16.47;56.30;101831.31;5057761;28;20296;-82
2023/05/30 08:28:18;;;;;;;10.37;5.23;;;;;;;16.55;56.71;101831.59;5041259;28;20299;-81
2023/05/30 08:30:48;;;;;;;13.60;4.80;;;;;;;16.61;56.82;101827.63;5052924;28;20747;-81
2023/05/30 08:33:15;;;;;;;8.57;4.33;;;;;;;16.66;56.38;101834.44;5052697;28;20226;-80
2023/05/30 08:35:43;;;;;;;10.40;5.50;;;;;;;16.68;56.32;101831.63;5052676;28;20203;-82
2023/05/30 08:38:09;;;;;;;8.70;4.83;;;;;;;16.80;56.42;101836.19;5052240;28;20215;-83
2023/05/30 08:40:40;;;;;;;10.73;4.23;;;;;;;16.95;56.17;101832.38;5053388;28;20235;-83
2023/05/30 08:43:07;;;;;;;15.90;4.43;;;;;;;17.08;55.31;101831.50;5053196;28;20185;-83
2023/05/30 08:45:34;;;;;;;11.67;4.97;;;;;;;17.18;54.68;101824.50;5052272;28;20212;-82
2023/05/30 08:48:01;;;;;;;7.83;4.23;;;;;;;17.28;54.47;101828.22;5051912;28;20215;-82
2023/05/30 08:50:29;;;;;;;9.90;4.93;;;;;;;17.40;54.64;101832.72;5052217;28;20221;-81
2023/05/30 08:53:00;;;;;;;10.80;4.50;;;;;;;17.49;53.92;101837.44;5052769;28;20230;-82
2023/05/30 08:55:31;;;;;;;10.50;4.63;;;;;;;17.59;53.86;101840.31;5052062;28;20657;-82
2023/05/30 08:58:04;;;;;;;13.30;4.77;;;;;;;17.62;53.52;101843.63;5053710;28;20187;-82
2023/05/30 09:00:32;;;;;;;9.83;4.17;;;;;;;17.73;54.00;101839.34;5052847;28;20265;-82
2023/05/30 09:02:59;;;;;;;10.63;4.50;;;;;;;17.88;53.49;101847.13;5053232;28;20206;-82
2023/05/30 09:05:26;;;;;;;10.27;4.07;;;;;;;17.97;52.59;101845.56;5052364;28;20199;-83
2023/05/30 09:07:53;;;;;;;9.33;4.53;;;;;;;18.04;52.63;101845.00;5051906;28;20214;-82
2023/05/30 09:10:22;;;;;;;8.70;3.80;;;;;;;18.13;53.03;101851.50;5051624;28;20327;-82
2023/05/30 09:12:48;;;;;;;7.70;4.10;;;;;;;18.22;51.96;101855.34;5051640;28;20213;-82
2023/05/30 09:15:15;;;;;;;8.00;4.20;;;;;;;18.26;51.14;101855.00;5052402;28;20211;-81
2023/05/30 09:17:41;;;;;;;8.00;3.40;;;;;;;18.26;50.24;101851.47;5052937;28;20221;-82
2023/05/30 09:20:09;;;;;;;8.77;3.43;;;;;;;18.25;49.08;101849.72;5051856;28;20904;-82
2023/05/30 09:22:37;;;;;;;8.93;3.67;;;;;;;18.26;48.78;101846.06;5051871;28;20220;-82
2023/05/30 09:25:05;;;;;;;5.33;3.07;;;;;;;18.27;48.87;101845.09;5051461;28;20209;-82
2023/05/30 09:27:35;;;;;;;6.37;3.57;;;;;;;18.35;49.23;101848.91;5051711;28;20660;-81
2023/05/30 09:30:06;;;;;;;9.60;3.67;;;;;;;18.42;49.02;101851.13;5051413;28;20229;-81
2023/05/30 09:32:34;;;;;;;7.30;3.50;;;;;;;18.47;49.22;101854.31;5052174;28;20187;-81
2023/05/30 09:35:04;;;;;;;7.50;3.10;;;;;;;18.57;49.42;101852.63;5051945;28;20264;-82
2023/05/30 09:37:36;;;;;;;9.03;3.73;;;;;;;18.60;48.19;101853.28;5051970;28;20187;-82
2023/05/30 09:40:08;;;;;;;9.83;3.60;;;;;;;18.66;48.21;101852.78;5051657;28;20239;-81
2023/05/30 09:42:41;;;;;;;7.23;3.70;;;;;;;18.69;48.25;101855.25;5053067;28;20265;-82
2023/05/30 09:45:09;;;;;;;8.33;3.90;;;;;;;18.78;48.41;101852.84;5033781;28;20293;-83
2023/05/30 09:51:03;;;;;;;6.50;3.87;;;;;;;19.00;47.85;101855.53;5028522;22;20257;-76
2023/05/30 09:53:30;;;;;;;8.00;3.57;;;;;;;19.07;47.80;101856.75;5019140;28;20224;-76
2023/05/30 09:55:57;;;;;;;6.43;3.50;;;;;;;19.15;47.18;101851.63;5005090;28;20717;-75
2023/05/30 09:58:25;;;;;;;9.70;3.77;;;;;;;19.17;46.80;101852.31;5002906;28;20216;-75
2023/05/30 10:00:54;;;;;;;8.27;3.47;;;;;;;19.20;46.50;101846.69;5006652;28;20396;-76
2023/05/30 10:03:21;;;;;;;6.67;3.10;;;;;;;19.22;45.98;101836.63;5002758;28;20206;-76
2023/05/30 10:05:48;;;;;;;7.87;3.80;;;;;;;19.26;45.38;101832.69;5001550;28;20749;-75
2023/05/30 10:08:16;;;;;;;6.83;3.67;;;;;;;19.29;44.92;101835.16;5000884;28;20210;-75
2023/05/30 10:10:42;;;;;;;4.13;2.40;;;;;;;19.35;43.85;101842.75;5000170;28;20700;-76
2023/05/30 10:13:09;;;;;;;8.70;3.27;;;;;;;19.36;44.37;101847.16;5006661;28;20217;-76
2023/05/30 10:15:37;;;;;;;6.80;3.13;;;;;;;19.45;44.42;101831.19;5005963;28;20760;-75
2023/05/30 10:18:07;;;;;;;7.90;3.40;;;;;;;19.47;44.54;101829.22;5001712;28;20206;-75
2023/05/30 10:20:36;;;;;;;5.27;3.37;;;;;;;19.50;45.08;101829.00;5003321;28;20209;-76
2023/05/30 10:23:06;;;;;;;7.03;2.57;;;;;;;19.49;44.35;101830.81;5001811;28;21123;-76
2023/05/30 10:25:35;;;;;;;6.30;3.17;;;;;;;19.57;45.10;101827.50;5007775;28;20292;-76
2023/05/30 10:28:04;;;;;;;6.90;2.93;;;;;;;19.62;44.66;101828.84;5003072;28;20210;-76
2023/05/30 10:30:32;;;;;;;9.70;3.17;;;;;;;19.67;45.00;101828.47;5003204;28;20726;-76
2023/05/30 10:33:05;;;;;;;6.30;3.40;;;;;;;19.78;45.63;101814.91;5003285;28;20204;-76
2023/05/30 10:35:33;;;;;;;4.83;2.80;;;;;;;19.93;45.23;101810.91;5005610;28;20226;-76
2023/05/30 10:38:00;;;;;;;8.73;2.83;;;;;;;19.97;44.21;101815.09;5006069;28;20215;-76
2023/05/30 10:40:40;;;;;;;10.50;3.57;;;;;;;19.94;44.59;101809.94;5003406;28;20208;-76
2023/05/30 10:43:28;;;;;;;7.80;3.20;;;;;;;20.01;45.24;101813.84;4999167;28;20206;-76
2023/05/30 10:46:06;;;;;;;7.97;3.33;;;;;;;20.11;45.64;101808.50;5003802;28;20224;-74
2023/05/30 10:48:47;;;;;;;6.13;2.67;;;;;;;20.14;45.31;101807.38;5003948;28;20219;-76
2023/05/30 10:51:14;;;;;;;6.37;3.10;;;;;;;20.11;45.32;101808.50;5006419;28;20209;-76
2023/05/30 10:53:42;;;;;;;6.47;2.67;;;;;;;20.13;45.97;101811.09;5005851;28;20242;-75
2023/05/30 10:56:40;;;;;;;5.43;3.03;;;;;;;20.19;45.84;101807.88;5009526;28;20707;-76
2023/05/30 10:59:12;;;;;;;5.53;2.90;;;;;;;20.22;45.97;101805.75;4999944;28;20204;-76
2023/05/30 11:01:39;;;;;;;5.07;2.80;;;;;;;20.29;46.12;101800.66;5008695;28;20217;-76
2023/05/30 11:04:09;;;;;;;4.23;3.00;;;;;;;20.37;46.02;101803.59;5006671;28;20209;-76
2023/05/30 11:06:38;;;;;;;5.30;3.03;;;;;;;20.43;45.26;101800.34;5008084;28;20297;-76
2023/05/30 11:09:06;;;;;;;4.32;2.83;;;;;;;20.48;45.91;101799.97;5000850;28;20202;-76
2023/05/30 11:11:41;;;;;;;4.50;2.73;;;;;;;20.55;46.55;101802.00;5007461;28;20207;-76
2023/05/30 11:14:10;;;;;;;4.45;2.65;;;;;;;20.63;47.05;101796.78;5005565;28;20832;-76
2023/05/30 11:16:48;;;;;;;3.95;2.90;;;;;;;20.69;46.81;101804.38;5007461;28;20297;-76
2023/05/30 11:19:18;;;;;;;5.63;3.00;;;;;;;20.68;46.77;101799.06;5006010;28;20205;-76
2023/05/30 11:22:01;;;;;;;3.83;2.90;;;;;;;20.68;46.71;101791.81;5003861;28;20698;-76
2023/05/30 11:24:29;;;;;;;4.13;2.30;;;;;;;20.72;47.20;101795.13;5006292;28;20233;-75
2023/05/30 11:26:58;;;;;;;5.60;3.15;;;;;;;20.70;46.30;101791.69;5001838;28;20211;-76
2023/05/30 11:29:35;;;;;;;7.15;2.80;;;;;;;20.68;46.72;101790.97;5007568;28;20667;-76